Flight Track Log - Related Links

Times and Time Zones

All times are in EDT time to prevent confusion due to time zone crossing. See the UAL4236 flight status page for this flight to view local times or setup timezone preferences in your user account.

Time Position Orientation Groundspeed Altitude Reporting Facility
EDT Latitude Longitude Course Direction KTS MPH feet Rate Location/Type
Thu 09:52:23 AM 29.9639 -95.3433 276° West 161 185 500  Level Houston Center
Thu 09:52:29 AM 29.9572 -95.3392 152° Southeast 166 191 700 1,412 Climbing Houston Center
Thu 09:53:31 AM 29.9356 -95.3781 237° Southwest 220 253 2,100 1,364 Climbing Houston Center
Thu 09:54:19 AM 29.9578 -95.4194 302° West 235 270 3,200 1,967 Climbing Houston Center
Thu 09:54:32 AM 29.9631 -95.4494 281° West 261 300 4,100 2,164 Climbing Houston Center
Thu 09:55:00 AM 30.0536 -95.6709 276° West  Level Estimated
Thu 09:55:20 AM 29.9750 -95.5006 285° West 256 295 5,400  Level Houston Center
Thu 09:56:00 AM 30.0524 -95.7840 269° West  Level FlightAware Approximate
Thu 09:56:23 AM 30.0000 -95.6011 286° West 271 312 8,300  Level Houston Center
Thu 09:57:00 AM 30.0755 -95.8938 276° West  Level Estimated
Thu 09:57:25 AM 30.0178 -95.6886 283° West 280 322 10,300  Level Houston Center
Thu 09:58:27 AM 30.0392 -95.7819 285° West 298 343 11,500 1,016 Climbing Houston Center
Thu 09:59:29 AM 30.0608 -95.8872 283° West 335 386 12,400 919 Climbing Houston Center
Thu 10:00:31 AM 30.0833 -95.9992 283° West 355 409 13,400 1,065 Climbing Houston Center
Thu 10:01:33 AM 30.0819 -96.1297 269° West 371 427 14,600 1,161 Climbing Houston Center
Thu 10:02:35 AM 30.0989 -96.2450 280° West 366 421 15,800 1,210 Climbing Houston Center
Thu 10:03:37 AM 30.1164 -96.3617 280° West 369 425 17,100 1,113 Climbing Houston Center
Thu 10:04:39 AM 30.1353 -96.4858 280° West 368 423 18,100 1,161 Climbing Houston Center
Thu 10:05:41 AM 30.1567 -96.6197 281° West 361 415 19,500 1,113 Climbing Houston Center
Thu 10:06:43 AM 30.1742 -96.7406 280° West 372 428 20,400 912 Climbing Houston Center
Thu 10:07:46 AM 30.1931 -96.8614 280° West 378 435 21,400 960 Climbing Houston Center
Thu 10:08:48 AM 30.2097 -96.9850 279° West 383 441 22,400 1,016 Climbing Houston Center
Thu 10:09:50 AM 30.2289 -97.1097 280° West 387 445 23,500 1,016 Climbing Houston Center
Thu 10:10:52 AM 30.2461 -97.2314 279° West 382 440 24,500 968 Climbing Houston Center
Thu 10:11:54 AM 30.2636 -97.3514 280° West 377 434 25,500 919 Climbing Houston Center
Thu 10:12:56 AM 30.2814 -97.4717 280° West 374 430 26,400 968 Climbing Houston Center
Thu 10:13:58 AM 30.3017 -97.6086 280° West 368 423 27,500 1,065 Climbing Houston Center
Thu 10:15:00 AM 30.3183 -97.7253 279° West 364 419 28,600 1,016 Climbing Houston Center
Thu 10:16:02 AM 30.3339 -97.8406 279° West 359 413 29,600 960 Climbing Houston Center
Thu 10:17:05 AM 30.3497 -97.9536 279° West 352 405 30,600 960 Climbing Houston Center
Thu 10:18:07 AM 30.3658 -98.0692 279° West 358 412 31,600 968 Climbing Houston Center
Thu 10:19:09 AM 30.3817 -98.1836 279° West 356 410 32,600 968 Climbing Houston Center
Thu 10:20:11 AM 30.3981 -98.2983 279° West 358 412 33,600 677 Climbing Houston Center
Thu 10:21:13 AM 30.4133 -98.4131 279° West 358 412 34,000 194 Climbing Houston Center
Thu 10:22:15 AM 30.4328 -98.5550 279° West 377 434 34,000  Level Houston Center
Thu 10:23:17 AM 30.4492 -98.6794 279° West 385 443 34,000  Level Houston Center
Thu 10:24:19 AM 30.4656 -98.8028 279° West 384 442 34,000  Level Houston Center
Thu 10:25:22 AM 30.4828 -98.9272 279° West 386 444 34,000  Level Houston Center
Thu 10:26:24 AM 30.5006 -99.0497 280° West 383 441 34,000  Level Houston Center
Thu 10:27:26 AM 30.5156 -99.1672 278° West 382 440 34,000  Level Houston Center
Thu 10:28:28 AM 30.5394 -99.3114 281° West 380 437 34,000  Level Houston Center
Thu 10:29:30 AM 30.5628 -99.4314 283° West 381 438 34,000  Level Houston Center
Thu 10:30:32 AM 30.5861 -99.5508 283° West 382 440 34,000  Level Houston Center
Thu 10:31:34 AM 30.6108 -99.6697 284° West 382 440 34,000  Level Houston Center
Thu 10:32:36 AM 30.6331 -99.7886 282° West 379 436 34,000  Level Houston Center
Thu 10:33:38 AM 30.6581 -99.9078 284° West 382 440 34,000  Level Houston Center
Thu 10:34:41 AM 30.6847 -100.0500 282° West 378 435 34,000  Level Houston Center
Thu 10:35:43 AM 30.7078 -100.1708 283° West 383 441 34,000  Level Houston Center
Thu 10:36:45 AM 30.7311 -100.2906 283° West 384 442 34,000  Level Houston Center
Thu 10:37:47 AM 30.7542 -100.4094 283° West 381 438 34,000  Level Houston Center
Thu 10:38:49 AM 30.7756 -100.5297 282° West 383 441 34,000  Level Houston Center
Thu 10:39:51 AM 30.8031 -100.6733 283° West 382 440 34,000  Level Houston Center
Thu 10:40:53 AM 30.8264 -100.7939 283° West 383 441 34,000  Level Houston Center
Thu 10:41:55 AM 30.8481 -100.9156 282° West 386 444 34,000  Level Houston Center
Thu 10:42:57 AM 30.8708 -101.0378 282° West 388 447 34,000  Level Houston Center
Thu 10:43:59 AM 30.8942 -101.1600 283° West 389 448 34,000  Level Houston Center
Thu 10:45:02 AM 30.9200 -101.3081 282° West 390 449 34,000  Level Houston Center
Thu 10:46:04 AM 30.9408 -101.4219 282° West 392 451 34,000  Level Houston Center
Thu 10:47:06 AM 30.9633 -101.5444 282° West 389 448 34,000  Level Houston Center
Thu 10:48:08 AM 30.9906 -101.6936 282° West 391 450 34,000  Level Houston Center
Thu 10:49:10 AM 31.0131 -101.8178 282° West 391 450 34,000  Level Houston Center
Thu 10:50:12 AM 31.0344 -101.9425 281° West 392 451 34,000  Level Houston Center
Thu 10:51:14 AM 31.0564 -102.0664 282° West 390 449 34,000  Level Houston Center
Thu 10:52:16 AM 31.0783 -102.1911 282° West 389 448 34,000  Level Houston Center
Thu 10:53:18 AM 31.1003 -102.3178 281° West 391 450 34,000  Level Houston Center
Thu 10:54:00 AM 31.1153 -102.4050 281° West 393 452 34,000  Level Albuquerque Center
Thu 10:55:02 AM 31.1386 -102.5467 281° West 390 449 34,000  Level Albuquerque Center
Thu 10:56:04 AM 31.1608 -102.6706 282° West 388 447 34,000  Level Albuquerque Center
Thu 10:57:06 AM 31.1817 -102.7956 281° West 390 449 34,000  Level Albuquerque Center
Thu 10:58:08 AM 31.2031 -102.9211 281° West 393 452 34,000  Level Albuquerque Center
Thu 10:59:09 AM 31.2250 -103.0458 282° West 393 452 34,000  Level Albuquerque Center
Thu 11:00:11 AM 31.2458 -103.1722 281° West 394 453 34,000  Level Albuquerque Center
Thu 11:01:13 AM 31.2708 -103.3225 281° West 394 453 34,000 -48 Level Albuquerque Center
Thu 11:02:15 AM 31.2906 -103.4469 281° West 393 452 33,900  Descending Albuquerque Center
Thu 11:03:17 AM 31.3114 -103.5736 281° West 394 453 34,000 48 Climbing Albuquerque Center
Thu 11:04:19 AM 31.3328 -103.6989 281° West 394 453 34,000  Level Albuquerque Center
Thu 11:05:21 AM 31.3525 -103.8239 280° West 395 455 34,000  Level Albuquerque Center
Thu 11:06:23 AM 31.3758 -103.9506 282° West 397 457 34,000  Level Albuquerque Center
Thu 11:07:25 AM 31.3967 -104.0769 281° West 398 458 34,000  Level Albuquerque Center
Thu 11:08:27 AM 31.4194 -104.2286 280° West 397 457 34,000  Level Albuquerque Center
Thu 11:09:29 AM 31.4403 -104.3547 281° West 397 457 34,000  Level Albuquerque Center
Thu 11:10:31 AM 31.4572 -104.4814 279° West 396 456 34,000 -629 Level Albuquerque Center
Thu 11:11:33 AM 31.4708 -104.6089 277° West 398 458 32,700 -1,645 Descending Albuquerque Center
Thu 11:12:35 AM 31.4842 -104.7358 277° West 396 456 30,600 -2,129 Descending Albuquerque Center
Thu 11:13:37 AM 31.4994 -104.8858 277° West 391 450 28,300 -2,177 Descending Albuquerque Center
Thu 11:14:39 AM 31.5108 -105.0081 276° West 384 442 26,100 -2,081 Descending Albuquerque Center
Thu 11:15:41 AM 31.5231 -105.1306 277° West 382 440 24,000 -1,983 Descending Albuquerque Center
Thu 11:16:34 AM 31.5350 -105.2542 277° West 387 445 22,300 -1,742 Descending Albuquerque Center
Thu 11:16:43 AM 31.5358 -105.2558 300° West 386 444 22,200 -2,262 Descending Albuquerque Center
Thu 11:17:35 AM 31.5464 -105.3811 276° West 390 449 20,000 -2,129 Descending Albuquerque Center
Thu 11:17:45 AM 31.5483 -105.3794 36° Northeast 387 445 20,000 -1,917 Level Albuquerque Center
Thu 11:18:47 AM 31.5617 -105.5214 276° West 372 428 17,700 -2,081 Descending Albuquerque Center
Thu 11:19:49 AM 31.5722 -105.6331 276° West 355 409 15,700 -1,800 Descending Albuquerque Center
Thu 11:20:37 AM 31.5803 -105.7194 276° West 333 383 14,400 -1,524 Descending Albuquerque Center
Thu 11:20:52 AM 31.5822 -105.7397 276° West 339 390 14,100 -1,800 Descending Albuquerque Center
Thu 11:21:37 AM 31.5994 -105.8219 284° West 296 341 12,600 -1,645 Descending Albuquerque Center
Thu 11:21:54 AM 31.6011 -105.8314 282° West 305 351 12,400 -1,791 Descending Albuquerque Center
Thu 11:22:44 AM 31.6436 -105.9106 302° West 288 331 10,600 -1,839 Descending Albuquerque Center
Thu 11:22:56 AM 31.6453 -105.9119 325° Northwest 295 339 10,500 -1,180 Descending Albuquerque Center
Thu 11:23:45 AM 31.6817 -105.9883 299° West 277 319 9,400 -1,355 Descending Albuquerque Center
Thu 11:23:58 AM 31.6911 -106.0056 303° West 280 322 9,100 -1,200 Descending Albuquerque Center
Thu 11:25:00 AM 31.7308 -106.0822 301° West 276 318 7,900 -778 Descending Albuquerque Center
Thu 11:25:46 AM 31.7644 -106.1372 306° West 267 307 7,700 -387 Descending Albuquerque Center
Thu 11:26:02 AM 31.7758 -106.1528 311° West 272 313 7,500 -1,200 Descending Albuquerque Center
Thu 11:26:46 AM 31.7969 -106.2092 294° West 238 274 6,500 -1,161 Descending Albuquerque Center
Thu 11:27:04 AM 31.7972 -106.2189 272° West 244 281 6,300 -984 Descending Albuquerque Center
Thu 11:27:47 AM 31.7964 -106.2767 269° West 208 239 5,500 -968 Descending Albuquerque Center
Thu 11:28:06 AM 31.7967 -106.2878 272° West 220 253 5,300 -984 Descending Albuquerque Center
Thu 11:28:48 AM 31.7978 -106.3314 272° West 148 170 4,500 -968 Descending Albuquerque Center
Thu 11:29:08 AM 31.7964 -106.3414 261° West 195 224 4,300 -600 Descending Albuquerque Center

Login

Don't have an account? Register now (free) for customized features, flight alerts, and more!